Home   Weather   Germany   Zweibrücken   Past weeks
Flag for Germany

Past Weather in Zweibrücken, Rhineland-Palatinate, Germany — Yesterday and Last 2 Weeks

Currently: 68 °F. Clear. (Weather station: Saarbruecken / Ensheim, Germany). See more current weather

Past Weather in Zweibrücken — Graph

°F

Zweibrücken Temperature Yesterday

Maximum temperature yesterday: 86 °F (at 4:20 pm)
Minimum temperature yesterday: 63 °F (at 6:20 am)
Average temperature yesterday: 74 °F

High & Low Weather Summary for the Past Weeks

 TemperatureHumidityPressure
High99 °F (Aug 4, 3:50 pm)94% (Jul 30, 6:50 am)30.30 "Hg (Jul 30, 6:50 am)
Low55 °F (Jul 30, 4:20 am)20% (Aug 4, 4:20 pm)29.89 "Hg (Aug 4, 6:20 pm)
Average72 °F50%30.08 "Hg
* Reported Jul 26 3:20 am — Aug 10 3:20 am, Zweibrücken. Weather by CustomWeather, © 2022

Note: Actual official high and low records may vary slightly from our data, if they occured in-between our weather recording intervals... More about our weather records

Zweibrücken Weather History for the Previous 24 Hours

Scroll right to see more
 ConditionsComfort  
Time TempWeatherWind HumidityBarometerVisibility
3:20 am
Wed, Aug 10
68 °FClear.12 mph43%30.21 "Hg10 mi
2:50 am68 °FClear.12 mph43%30.21 "Hg10 mi
12:50 am70 °FClear.12 mph40%30.24 "Hg10 mi
12:20 am72 °FClear.9 mph38%30.24 "Hg10 mi
11:20 pm
Tue, Aug 9
73 °FClear.8 mph36%30.24 "Hg10 mi
10:50 pm73 °FClear.8 mph36%30.24 "Hg10 mi
10:20 pm73 °FClear.6 mph36%30.24 "Hg10 mi
9:50 pm75 °FClear.6 mph34%30.24 "Hg10 mi
9:20 pm75 °FClear.6 mph34%30.24 "Hg10 mi
8:50 pm77 °FSunny.7 mph30%30.21 "Hg10 mi
8:20 pm81 °FSunny.10 mph26%30.21 "Hg10 mi
7:50 pm82 °FSunny.10 mph25%30.21 "Hg10 mi
7:20 pm82 °FPassing clouds.13 mph25%30.21 "HgN/A
6:50 pm84 °FPassing clouds.13 mph25%30.21 "HgN/A
6:20 pm84 °FPassing clouds.12 mph25%30.21 "HgN/A
5:50 pm86 °FPassing clouds.12 mph24%30.21 "HgN/A
5:20 pm86 °FPassing clouds.13 mph24%30.21 "HgN/A
4:50 pm86 °FPassing clouds.12 mph24%30.21 "HgN/A
4:20 pm86 °FPassing clouds.9 mph24%30.21 "HgN/A
3:20 pm84 °FPassing clouds.10 mph27%30.24 "HgN/A
2:20 pm84 °FSunny.9 mph29%30.24 "Hg10 mi
1:50 pm82 °FPassing clouds.6 mph28%30.24 "HgN/A
1:20 pm82 °FPassing clouds.12 mph28%30.24 "HgN/A
12:50 pm82 °FPassing clouds.9 mph28%30.24 "HgN/A
12:20 pm81 °FPassing clouds.9 mph30%30.27 "HgN/A
11:50 am79 °FPassing clouds.9 mph32%30.27 "HgN/A
11:20 am77 °FPassing clouds.10 mph34%30.27 "HgN/A
10:50 am75 °FPassing clouds.10 mph36%30.27 "HgN/A
10:20 am75 °FPassing clouds.10 mph36%30.27 "HgN/A
9:50 am72 °FPassing clouds.10 mph41%30.27 "HgN/A
9:20 am70 °FSunny.14 mph43%30.24 "Hg10 mi
8:50 am68 °FSunny.12 mph46%30.24 "Hg10 mi
8:20 am66 °FSunny.13 mph49%30.24 "Hg10 mi
7:50 am66 °FSunny.14 mph49%30.24 "Hg10 mi
7:20 am64 °FSunny.13 mph49%30.24 "Hg10 mi
6:50 am64 °FSunny.13 mph49%30.21 "Hg10 mi
6:20 am63 °FSunny.12 mph52%30.21 "Hg10 mi
5:50 am64 °FClear.12 mph49%30.21 "Hg10 mi
5:20 am64 °FClear.12 mph49%30.21 "Hg10 mi
4:50 am64 °FClear.10 mph52%30.21 "Hg10 mi
4:20 am64 °FClear.10 mph52%30.21 "Hg10 mi
Weather by CustomWeather, © 2022

See weather overview